createdAt,value
2019-03-26T00:03:05.457Z,47.93
2019-03-26T00:07:11.225Z,48.35
2019-03-26T00:11:16.935Z,50.76
2019-03-26T00:15:22.646Z,50.68
2019-03-26T00:19:28.340Z,50.87
2019-03-26T00:23:34.025Z,49.46
2019-03-26T00:27:39.713Z,47.70
2019-03-26T00:31:45.476Z,47.32
2019-03-26T00:35:51.170Z,48.37
2019-03-26T00:39:57.239Z,51.67
2019-03-26T00:44:02.946Z,48.04
2019-03-26T00:48:08.647Z,50.74
2019-03-26T00:52:14.354Z,47.83
2019-03-26T00:56:20.139Z,47.99
2019-03-26T01:00:38.114Z,52.76
2019-03-26T01:04:43.881Z,50.63
2019-03-26T01:08:49.574Z,47.86
2019-03-26T01:12:55.754Z,48.67
2019-03-26T01:17:01.563Z,49.16
2019-03-26T01:21:07.403Z,50.54
2019-03-26T01:25:13.077Z,47.48
2019-03-26T01:29:18.767Z,49.70
2019-03-26T01:33:24.499Z,50.54
2019-03-26T01:37:30.206Z,47.78
2019-03-26T01:41:35.896Z,47.66
2019-03-26T01:45:41.589Z,50.25
2019-03-26T01:49:47.281Z,50.34
2019-03-26T01:53:52.977Z,51.37
2019-03-26T01:57:58.894Z,48.11
2019-03-26T02:02:04.636Z,48.64
2019-03-26T02:06:10.363Z,49.23
2019-03-26T02:10:16.070Z,48.82
2019-03-26T02:14:21.778Z,50.11
2019-03-26T02:18:27.492Z,50.35
2019-03-26T02:22:33.172Z,49.83
2019-03-26T02:26:38.865Z,53.53
2019-03-26T02:30:44.553Z,53.13
2019-03-26T02:34:50.415Z,51.05
2019-03-26T02:38:56.323Z,47.66
2019-03-26T02:43:01.996Z,49.01
2019-03-26T02:47:07.699Z,48.26
2019-03-26T02:51:13.363Z,52.03
2019-03-26T02:55:19.116Z,47.83
2019-03-26T02:59:24.801Z,48.79
2019-03-26T03:03:30.534Z,49.10
2019-03-26T03:07:36.323Z,48.89
2019-03-26T03:11:42.012Z,52.09
2019-03-26T03:15:47.744Z,51.47
2019-03-26T03:19:53.472Z,51.45
2019-03-26T03:23:59.409Z,49.14
2019-03-26T03:28:05.087Z,53.54
2019-03-26T03:32:10.783Z,49.29
2019-03-26T03:36:16.492Z,48.07
2019-03-26T03:40:22.191Z,51.75
2019-03-26T03:44:27.888Z,52.62
2019-03-26T03:48:36.506Z,50.79
2019-03-26T03:52:43.029Z,48.86
2019-03-26T03:56:53.194Z,52.11
2019-03-26T04:00:59.109Z,49.29
2019-03-26T04:05:06.595Z,51.00
2019-03-26T04:09:12.303Z,47.66
2019-03-26T04:13:18.005Z,50.48
2019-03-26T04:17:23.701Z,50.98
2019-03-26T04:21:29.384Z,48.40
2019-03-26T04:25:35.108Z,49.44
2019-03-26T04:29:40.812Z,47.39
2019-03-26T04:33:46.601Z,50.87
2019-03-26T04:37:52.566Z,50.23
2019-03-26T04:41:59.455Z,48.45
2019-03-26T04:46:05.235Z,48.55
2019-03-26T04:50:11.238Z,49.83
2019-03-26T04:54:16.926Z,51.10
2019-03-26T04:58:22.606Z,50.39
2019-03-26T05:02:28.360Z,53.41
2019-03-26T05:06:38.324Z,48.30
2019-03-26T05:10:41.580Z,48.83
2019-03-26T05:14:47.277Z,47.73
2019-03-26T05:18:54.015Z,50.79
2019-03-26T05:22:59.786Z,50.40
2019-03-26T05:27:05.481Z,47.70
2019-03-26T05:31:11.227Z,48.63
2019-03-26T05:35:17.075Z,51.11
2019-03-26T05:39:22.749Z,49.29
2019-03-26T05:43:28.459Z,48.94
2019-03-26T05:47:34.140Z,51.63
2019-03-26T05:51:39.828Z,51.58
2019-03-26T05:55:45.520Z,48.22
2019-03-26T05:59:51.262Z,48.12
2019-03-26T06:03:57.064Z,48.46
2019-03-26T06:08:02.758Z,48.55
2019-03-26T06:12:08.517Z,52.19
2019-03-26T06:16:14.203Z,49.67
2019-03-26T06:20:20.270Z,53.33
2019-03-26T06:24:28.567Z,52.72
2019-03-26T06:28:34.320Z,49.08
2019-03-26T06:32:43.574Z,51.17
2019-03-26T06:36:49.315Z,49.55
2019-03-26T06:40:55.003Z,49.49
2019-03-26T06:45:00.868Z,51.67
2019-03-26T06:49:06.560Z,51.43
2019-03-26T06:53:12.247Z,52.62
2019-03-26T06:57:18.005Z,50.86
2019-03-26T07:01:23.705Z,50.54
2019-03-26T07:05:29.404Z,48.99
2019-03-26T07:09:35.107Z,50.14
2019-03-26T07:13:40.812Z,50.40
2019-03-26T07:17:46.527Z,51.00
2019-03-26T07:21:52.230Z,51.29
2019-03-26T07:25:59.668Z,49.24
2019-03-26T07:30:10.182Z,49.18
2019-03-26T07:34:15.940Z,48.21
2019-03-26T07:38:21.784Z,47.91
2019-03-26T07:42:27.498Z,47.84
2019-03-26T07:46:33.291Z,48.34
2019-03-26T07:50:40.538Z,47.52
2019-03-26T07:54:46.220Z,48.42
2019-03-26T07:58:51.919Z,48.29
2019-03-26T08:02:59.058Z,48.63
2019-03-26T08:07:04.827Z,49.83
2019-03-26T08:11:10.539Z,48.95
2019-03-26T08:15:16.301Z,48.53
2019-03-26T08:19:21.973Z,50.26
2019-03-26T08:23:27.710Z,47.90
2019-03-26T08:27:33.436Z,46.75
2019-03-26T08:31:39.210Z,47.03
2019-03-26T08:35:44.895Z,46.80
2019-03-26T08:39:52.399Z,48.13
2019-03-26T08:43:58.202Z,47.60
2019-03-26T08:48:04.063Z,47.70
2019-03-26T08:52:09.782Z,46.52
2019-03-26T08:56:15.502Z,45.40
2019-03-26T09:00:22.315Z,46.06
2019-03-26T09:04:28.013Z,45.35
2019-03-26T09:08:33.689Z,45.10
2019-03-26T09:12:39.789Z,44.17
2019-03-26T09:16:45.674Z,44.41
2019-03-26T09:20:51.514Z,41.05
2019-03-26T09:24:57.418Z,40.25
2019-03-26T09:29:03.137Z,39.76
2019-03-26T09:33:08.835Z,39.44
2019-03-26T09:37:14.532Z,40.25
2019-03-26T09:41:20.337Z,39.63
2019-03-26T09:45:26.092Z,40.20
2019-03-26T09:49:31.790Z,44.22
2019-03-26T09:53:37.600Z,42.68
2019-03-26T09:57:43.298Z,45.40
2019-03-26T10:01:48.995Z,42.12
2019-03-26T10:05:54.691Z,42.68
2019-03-26T10:10:00.472Z,42.91
2019-03-26T10:14:06.275Z,43.71
2019-03-26T10:18:11.982Z,44.63
2019-03-26T10:22:20.018Z,41.88
2019-03-26T10:26:25.193Z,41.36
2019-03-26T10:30:39.793Z,44.29
2019-03-26T10:34:45.449Z,40.43
2019-03-26T10:38:51.147Z,42.87
2019-03-26T10:42:56.991Z,39.04
2019-03-26T10:47:02.847Z,37.58
2019-03-26T10:51:08.584Z,33.09
2019-03-26T10:55:15.279Z,28.21
2019-03-26T10:59:21.127Z,25.70
2019-03-26T11:03:33.955Z,27.87
2019-03-26T11:07:42.546Z,30.66
2019-03-26T11:11:47.179Z,32.47
2019-03-26T11:15:52.878Z,35.18
2019-03-26T11:19:58.670Z,35.12
2019-03-26T11:24:04.734Z,37.58
2019-03-26T11:28:10.500Z,33.89
2019-03-26T11:32:16.177Z,33.00
2019-03-26T11:36:21.877Z,32.11
2019-03-26T11:40:27.633Z,33.76
2019-03-26T11:44:33.335Z,35.86
2019-03-26T11:48:39.122Z,38.15
2019-03-26T11:52:44.875Z,35.32
2019-03-26T11:56:50.683Z,35.22
2019-03-26T12:00:56.471Z,37.34
2019-03-26T12:05:02.239Z,33.79
2019-03-26T12:09:09.028Z,35.99
2019-03-26T12:13:14.706Z,38.25
2019-03-26T12:17:20.411Z,34.44
2019-03-26T12:21:26.104Z,31.55
2019-03-26T12:25:31.792Z,28.53
2019-03-26T12:29:37.499Z,26.70
2019-03-26T12:33:43.185Z,27.13
2019-03-26T12:37:48.931Z,27.36
2019-03-26T12:41:54.691Z,25.21
2019-03-26T12:46:02.024Z,27.96
2019-03-26T12:50:09.566Z,25.53
2019-03-26T12:54:15.275Z,26.24
2019-03-26T12:58:31.217Z,31.17
2019-03-26T13:02:29.436Z,28.71
2019-03-26T13:06:35.405Z,25.94
2019-03-26T13:10:52.740Z,24.64
2019-03-26T13:14:48.574Z,26.57
2019-03-26T13:18:54.258Z,25.46
2019-03-26T13:23:00.074Z,24.73
2019-03-26T13:27:05.817Z,25.62
2019-03-26T13:31:11.514Z,27.97
2019-03-26T13:35:17.546Z,27.29
2019-03-26T13:39:23.239Z,26.51
2019-03-26T13:43:28.936Z,25.63
2019-03-26T13:47:34.606Z,24.44
2019-03-26T13:51:40.310Z,25.72
2019-03-26T13:55:46.002Z,29.31
2019-03-26T13:59:51.764Z,31.28
2019-03-26T14:03:57.460Z,29.53
2019-03-26T14:08:03.275Z,30.80
2019-03-26T14:12:08.987Z,24.70
2019-03-26T14:16:14.686Z,27.55
2019-03-26T14:20:20.804Z,30.34
2019-03-26T14:24:26.438Z,28.03
2019-03-26T14:28:32.129Z,31.87
2019-03-26T14:32:37.825Z,31.02
2019-03-26T14:36:43.545Z,30.90
2019-03-26T14:40:55.057Z,29.84
2019-03-26T14:44:56.788Z,26.10
2019-03-26T14:49:02.533Z,28.77
2019-03-26T14:53:08.234Z,26.64
2019-03-26T14:57:13.928Z,28.77
2019-03-26T15:01:19.625Z,27.47
2019-03-26T15:05:25.408Z,25.08
2019-03-26T15:09:31.196Z,25.36
2019-03-26T15:13:36.879Z,31.20
2019-03-26T15:17:42.594Z,31.61
2019-03-26T15:21:48.293Z,32.44
2019-03-26T15:25:53.968Z,33.26
2019-03-26T15:30:01.371Z,32.63
2019-03-26T15:34:07.142Z,32.40
2019-03-26T15:38:12.908Z,32.66
2019-03-26T15:42:18.600Z,37.04
2019-03-26T15:46:24.305Z,34.50
2019-03-26T15:50:44.947Z,35.02
2019-03-26T15:54:50.645Z,35.90
2019-03-26T15:58:56.338Z,34.95
2019-03-26T16:03:02.180Z,35.23
2019-03-26T16:07:07.932Z,34.82
2019-03-26T16:11:13.626Z,34.82
2019-03-26T16:15:19.343Z,35.75
2019-03-26T16:19:31.987Z,34.96
2019-03-26T16:23:32.438Z,35.67
2019-03-26T16:27:38.134Z,33.68
2019-03-26T16:31:43.821Z,35.18
2019-03-26T16:36:16.637Z,35.88
2019-03-26T16:40:22.449Z,36.86
2019-03-26T16:44:28.168Z,35.73
2019-03-26T16:48:34.833Z,39.20
2019-03-26T16:52:40.601Z,37.30
2019-03-26T16:56:46.298Z,37.55
2019-03-26T17:00:52.983Z,38.69
2019-03-26T17:04:58.735Z,36.70
2019-03-26T17:09:19.655Z,38.64
2019-03-26T17:13:25.504Z,37.96
2019-03-26T17:17:31.289Z,40.90
2019-03-26T17:21:36.981Z,36.75
2019-03-26T17:25:42.686Z,38.41
2019-03-26T17:29:48.416Z,39.34
2019-03-26T17:33:54.095Z,35.70
2019-03-26T17:38:00.535Z,38.21
2019-03-26T17:42:17.026Z,36.45
2019-03-26T17:46:15.729Z,35.73
2019-03-26T17:50:21.509Z,36.93
2019-03-26T17:54:27.228Z,39.81
2019-03-26T17:58:32.926Z,37.54
2019-03-26T18:02:38.673Z,40.76
2019-03-26T18:06:44.379Z,39.01
2019-03-26T18:10:50.132Z,34.88
2019-03-26T18:14:55.842Z,38.63
2019-03-26T18:19:01.833Z,38.82
2019-03-26T18:23:07.588Z,35.62
2019-03-26T18:27:13.350Z,36.06
2019-03-26T18:36:06.746Z,39.54
2019-03-26T18:40:12.775Z,38.10
2019-03-26T18:44:19.443Z,39.20
2019-03-26T18:48:25.166Z,38.07
2019-03-26T18:52:30.870Z,35.44
2019-03-26T18:56:37.533Z,38.83
2019-03-26T19:00:43.269Z,35.58
2019-03-26T19:05:19.065Z,42.64
2019-03-26T19:09:24.775Z,36.11
2019-03-26T19:18:20.471Z,37.20
2019-03-26T19:22:26.193Z,39.65
2019-03-26T19:26:31.887Z,35.56
2019-03-26T19:30:37.671Z,38.49
2019-03-26T19:34:43.419Z,38.01
2019-03-26T19:39:18.904Z,38.54
2019-03-26T19:43:24.713Z,39.90
2019-03-26T19:47:30.495Z,36.14
2019-03-26T19:52:18.067Z,36.76
2019-03-26T19:56:23.824Z,41.18
2019-03-26T20:00:29.535Z,39.88
2019-03-26T20:04:36.284Z,37.78
2019-03-26T20:13:24.616Z,37.61
2019-03-26T20:17:27.722Z,35.97
2019-03-26T20:22:18.369Z,36.59
2019-03-26T20:26:24.060Z,40.31
2019-03-26T20:30:29.756Z,39.57
2019-03-26T20:35:17.503Z,38.94
2019-03-26T20:39:23.278Z,41.28
2019-03-26T20:43:37.264Z,40.28
2019-03-26T20:47:36.491Z,37.70
2019-03-26T20:51:42.267Z,43.75
2019-03-26T20:55:54.182Z,41.95
2019-03-26T20:59:55.724Z,43.00
2019-03-26T21:04:01.712Z,43.12
2019-03-26T21:08:07.834Z,37.94
2019-03-26T21:12:13.540Z,37.47
2019-03-26T21:16:19.332Z,39.28
2019-03-26T21:20:25.024Z,35.86
2019-03-26T21:24:30.821Z,37.27
2019-03-26T21:28:36.548Z,43.05
2019-03-26T21:32:42.322Z,40.65
2019-03-26T21:37:17.902Z,43.24
2019-03-26T21:41:23.761Z,42.05
2019-03-26T21:45:37.406Z,42.11
2019-03-26T21:49:43.236Z,38.86
2019-03-26T21:53:48.922Z,40.98
2019-03-26T21:57:54.667Z,42.32
2019-03-26T22:02:01.592Z,37.86
2019-03-26T22:06:07.279Z,45.21
2019-03-26T22:10:13.420Z,41.96
2019-03-26T22:14:19.110Z,41.13
2019-03-26T22:18:24.832Z,38.31
2019-03-26T22:22:32.174Z,37.19
2019-03-26T22:26:37.859Z,39.80
2019-03-26T22:30:43.642Z,40.85
2019-03-26T22:34:49.303Z,41.16
2019-03-26T22:38:55.009Z,43.51
2019-03-26T22:43:00.835Z,45.34
2019-03-26T22:47:06.732Z,41.21
2019-03-26T22:51:12.509Z,38.50
2019-03-26T22:55:18.189Z,39.21
2019-03-26T23:06:17.077Z,44.76
2019-03-26T23:11:17.241Z,41.75
2019-03-26T23:15:27.745Z,42.52
2019-03-26T23:20:18.570Z,42.20
2019-03-26T23:24:42.558Z,46.56
2019-03-26T23:28:48.256Z,42.69
2019-03-26T23:32:53.974Z,43.71
2019-03-26T23:36:59.716Z,41.09
2019-03-26T23:41:05.604Z,43.38
2019-03-26T23:45:12.054Z,44.98
2019-03-26T23:49:17.745Z,43.84
2019-03-26T23:53:23.444Z,44.44
2019-03-26T23:57:29.147Z,41.74
